Time;durP1;ratioP1;P1;durP2;ratioP2;P2;SDS_P1;SDS_P2;PMS_P1;PMS_P2;Temp;Humidity;BMP_temperature;BMP_pressure;BME280_temperature;BME280_humidity;BME280_pressure;Samples;Min_cycle;Max_cycle;Signal;HPM_P1;HPM_P2
2023/05/08 00:04:36;;;;;;;6.43;3.63;;;25.40;63.30;;;;;;10532234;28;20178;-23
2023/05/08 00:09:39;;;;;;;5.03;3.22;;;25.40;63.30;;;;;;10536870;28;20102;-24
2023/05/08 00:14:41;;;;;;;7.10;4.00;;;25.30;63.30;;;;;;10522344;28;20550;-24
2023/05/08 00:19:43;;;;;;;9.00;4.40;;;25.30;63.30;;;;;;10540137;28;20082;-23
2023/05/08 00:24:46;;;;;;;6.72;3.90;;;25.30;63.50;;;;;;10531737;28;20146;-24
2023/05/08 00:29:49;;;;;;;7.30;4.18;;;25.20;63.40;;;;;;10518362;28;20132;-24
2023/05/08 00:34:51;;;;;;;7.30;4.30;;;25.20;63.40;;;;;;10530473;28;20143;-24
2023/05/08 00:39:54;;;;;;;9.88;4.30;;;25.20;63.40;;;;;;10526798;28;20036;-23
2023/05/08 00:44:56;;;;;;;5.57;3.90;;;25.10;63.50;;;;;;10543741;28;20036;-24
2023/05/08 00:49:58;;;;;;;7.97;4.30;;;25.10;63.50;;;;;;10537987;28;20083;-23
2023/05/08 00:55:03;;;;;;;9.25;4.70;;;25.10;63.50;;;;;;10533803;28;20139;-23
2023/05/08 01:00:07;;;;;;;4.85;4.05;;;25.00;63.60;;;;;;10532183;28;20048;-23
2023/05/08 01:05:09;;;;;;;10.85;4.20;;;25.00;63.50;;;;;;10514407;28;20055;-23
2023/05/08 01:10:12;;;;;;;7.78;4.50;;;24.90;63.50;;;;;;10522216;28;20158;-23
2023/05/08 01:15:18;;;;;;;6.25;4.30;;;24.90;63.60;;;;;;10533340;28;20087;-23
2023/05/08 01:20:31;;;;;;;8.18;4.63;;;24.80;63.80;;;;;;10532524;28;20044;-24
2023/05/08 01:26:07;;;;;;;9.65;4.63;;;24.80;63.80;;;;;;10527744;28;20048;-24
2023/05/08 01:31:21;;;;;;;6.68;4.40;;;24.80;63.80;;;;;;10488051;28;20055;-23
2023/05/08 01:36:33;;;;;;;6.85;4.22;;;24.70;63.80;;;;;;10526448;28;20059;-23
2023/05/08 01:41:37;;;;;;;9.48;4.68;;;24.70;63.80;;;;;;10522535;28;20142;-24
2023/05/08 01:46:39;;;;;;;8.48;3.97;;;24.70;63.80;;;;;;10524300;28;20147;-24
2023/05/08 01:51:46;;;;;;;7.25;3.78;;;24.70;63.70;;;;;;10513726;28;20060;-24
2023/05/08 01:56:50;;;;;;;8.40;3.78;;;24.60;63.80;;;;;;10516804;28;20092;-24
2023/05/08 02:01:55;;;;;;;8.13;4.03;;;24.60;63.80;;;;;;10536861;28;20146;-24
2023/05/08 02:07:00;;;;;;;5.55;3.60;;;24.60;63.80;;;;;;10535290;28;20151;-25
2023/05/08 02:12:04;;;;;;;8.25;4.22;;;24.50;63.80;;;;;;10520506;28;20510;-24
2023/05/08 02:17:09;;;;;;;7.45;3.83;;;24.50;64.00;;;;;;10530110;28;20071;-24
2023/05/08 02:22:15;;;;;;;9.95;4.03;;;24.50;64.10;;;;;;10532920;28;20122;-24
2023/05/08 02:27:18;;;;;;;6.10;3.55;;;24.40;64.00;;;;;;10536155;28;20476;-26
2023/05/08 02:32:20;;;;;;;8.10;3.50;;;24.40;64.10;;;;;;10522935;28;20134;-24
2023/05/08 02:37:25;;;;;;;6.07;3.40;;;24.40;64.20;;;;;;10527275;28;20476;-24
2023/05/08 02:42:27;;;;;;;7.00;3.25;;;24.30;64.10;;;;;;10526692;28;20086;-24
2023/05/08 02:47:38;;;;;;;5.95;3.08;;;24.30;64.20;;;;;;10528377;28;20074;-22
2023/05/08 02:52:45;;;;;;;5.57;3.20;;;24.20;64.30;;;;;;10518482;28;20083;-23
2023/05/08 02:57:53;;;;;;;4.53;3.15;;;24.20;64.20;;;;;;10537684;28;20044;-23
2023/05/08 03:03:01;;;;;;;6.88;2.90;;;24.20;64.30;;;;;;10531584;28;20451;-22
2023/05/08 03:08:08;;;;;;;6.97;3.13;;;24.10;64.30;;;;;;10539522;28;20442;-23
2023/05/08 03:13:12;;;;;;;5.70;2.90;;;24.10;64.20;;;;;;10545053;28;20143;-24
2023/05/08 03:18:18;;;;;;;4.43;2.60;;;24.10;64.30;;;;;;10544807;28;20201;-24
2023/05/08 03:23:23;;;;;;;3.75;2.55;;;24.10;64.40;;;;;;10534008;28;20097;-24
2023/05/08 03:28:26;;;;;;;4.43;2.60;;;24.10;64.30;;;;;;10537301;28;20095;-24
2023/05/08 03:33:29;;;;;;;4.30;2.50;;;24.10;64.20;;;;;;10538149;28;20122;-23
2023/05/08 03:38:34;;;;;;;2.95;2.17;;;24.00;64.40;;;;;;10526000;28;20048;-24
2023/05/08 03:43:37;;;;;;;4.40;2.40;;;23.90;64.30;;;;;;10540260;28;20131;-23
2023/05/08 03:48:41;;;;;;;5.13;2.75;;;24.00;64.30;;;;;;10537621;28;20045;-24
2023/05/08 03:53:44;;;;;;;4.18;2.17;;;23.90;64.20;;;;;;10534787;28;20088;-23
2023/05/08 03:58:50;;;;;;;5.88;2.72;;;23.90;64.30;;;;;;10533430;28;20044;-24
2023/05/08 04:03:59;;;;;;;4.65;2.28;;;23.90;64.40;;;;;;10544048;28;20142;-23
2023/05/08 04:09:13;;;;;;;5.30;2.83;;;23.90;64.40;;;;;;10536350;28;20179;-24
2023/05/08 04:14:19;;;;;;;3.30;2.08;;;23.90;64.60;;;;;;10534954;28;20142;-22
2023/05/08 04:19:24;;;;;;;3.95;2.33;;;23.80;64.50;;;;;;10530007;28;20086;-23
2023/05/08 04:24:30;;;;;;;6.40;2.80;;;23.80;64.50;;;;;;10527726;28;20158;-24
2023/05/08 04:29:32;;;;;;;4.70;3.35;;;23.80;64.50;;;;;;10528984;28;20071;-24
2023/05/08 04:34:35;;;;;;;5.32;3.15;;;23.80;64.30;;;;;;10524204;28;20101;-24
2023/05/08 04:39:38;;;;;;;5.10;3.50;;;23.80;64.40;;;;;;10537323;28;20192;-24
2023/05/08 04:44:40;;;;;;;4.85;3.30;;;23.70;64.50;;;;;;10524857;28;20050;-24
2023/05/08 04:49:41;;;;;;;;;;;23.70;64.50;;;;;;10518866;28;20036;-24
2023/05/08 04:54:45;;;;;;;4.55;2.97;;;23.80;64.40;;;;;;10509800;28;19924;-24
2023/05/08 04:59:46;;;;;;;5.50;3.80;;;23.80;64.40;;;;;;10519665;28;20103;-23
2023/05/08 05:04:48;;;;;;;;;;;23.70;64.50;;;;;;10522181;28;20052;-24
2023/05/08 05:09:51;;;;;;;6.20;3.70;;;23.70;64.60;;;;;;10519191;28;19971;-22
2023/05/08 05:14:53;;;;;;;6.32;3.33;;;23.70;64.70;;;;;;10525565;28;20055;-23
2023/05/08 05:19:57;;;;;;;4.78;2.80;;;23.70;64.60;;;;;;10533077;28;20093;-24
2023/05/08 05:25:00;;;;;;;7.07;2.97;;;23.70;64.80;;;;;;10532604;28;20464;-24
2023/05/08 05:30:02;;;;;;;4.82;3.50;;;23.60;64.90;;;;;;10526671;28;21847;-25
2023/05/08 05:35:04;;;;;;;4.22;3.20;;;23.60;65.00;;;;;;10511545;28;20058;-24
2023/05/08 05:40:09;;;;;;;4.95;3.42;;;23.70;64.80;;;;;;10524265;28;20115;-23
2023/05/08 05:45:12;;;;;;;6.28;3.60;;;23.70;65.00;;;;;;10518585;28;20067;-24
2023/05/08 05:50:13;;;;;;;5.93;3.63;;;23.60;64.90;;;;;;10525830;28;20131;-22
2023/05/08 05:55:16;;;;;;;;;;;23.60;64.90;;;;;;10528597;28;20069;-23
2023/05/08 06:00:20;;;;;;;6.90;3.53;;;23.60;65.10;;;;;;10515211;28;20276;-23
2023/05/08 06:05:21;;;;;;;7.68;3.10;;;23.60;64.90;;;;;;10527877;28;20055;-24
2023/05/08 06:10:25;;;;;;;5.38;3.45;;;23.60;64.90;;;;;;10516534;28;20048;-23
2023/05/08 06:15:27;;;;;;;5.78;3.50;;;23.50;65.00;;;;;;10516887;28;20051;-23
2023/05/08 06:20:29;;;;;;;;;;;23.60;65.10;;;;;;10530909;28;20137;-23
2023/05/08 06:25:32;;;;;;;8.43;3.80;;;23.60;65.00;;;;;;10539248;28;19949;-23
2023/05/08 06:30:34;;;;;;;5.35;3.50;;;23.50;65.10;;;;;;10536083;28;20051;-24
2023/05/08 06:35:36;;;;;;;6.47;3.72;;;23.50;65.00;;;;;;10529678;28;20051;-24
2023/05/08 06:40:42;;;;;;;;;;;23.50;64.90;;;;;;10538005;28;20075;-24
2023/05/08 06:45:44;;;;;;;8.88;5.07;;;23.50;65.10;;;;;;10530247;28;19924;-24
2023/05/08 06:50:46;;;;;;;10.07;5.15;;;23.50;65.20;;;;;;10538117;28;20048;-22
2023/05/08 06:55:50;;;;;;;10.00;5.30;;;23.50;65.10;;;;;;10536725;28;20048;-23
2023/05/08 07:00:52;;;;;;;11.93;6.05;;;23.50;65.10;;;;;;10532912;28;20133;-22
2023/05/08 07:05:53;;;;;;;;;;;23.50;65.10;;;;;;10527359;28;20135;-21
2023/05/08 07:10:56;;;;;;;15.52;7.43;;;23.40;65.30;;;;;;10535202;28;19979;-23
2023/05/08 07:15:58;;;;;;;18.27;8.35;;;23.50;65.30;;;;;;10536632;28;20055;-24
2023/05/08 07:21:00;;;;;;;;;;;23.50;65.10;;;;;;10525282;28;20083;-23
2023/05/08 07:26:03;;;;;;;19.10;8.73;;;23.50;65.20;;;;;;10523959;28;19930;-24
2023/05/08 07:31:05;;;;;;;18.85;9.65;;;23.50;65.10;;;;;;10536340;28;20509;-24
2023/05/08 07:36:07;;;;;;;18.15;9.43;;;23.50;65.20;;;;;;10534696;28;20135;-23
2023/05/08 07:41:11;;;;;;;22.92;11.25;;;23.50;65.40;;;;;;10535806;28;20044;-23
2023/05/08 07:46:17;;;;;;;19.55;9.55;;;23.40;65.30;;;;;;10545707;28;20121;-23
2023/05/08 07:51:18;;;;;;;19.35;10.20;;;23.50;65.20;;;;;;10531848;28;20094;-23
2023/05/08 07:56:22;;;;;;;;;;;23.50;65.10;;;;;;10536078;28;20107;-22
2023/05/08 08:01:24;;;;;;;17.60;8.70;;;23.30;66.00;;;;;;10536338;28;19924;-22
2023/05/08 08:06:26;;;;;;;;;;;23.50;65.30;;;;;;10532021;28;20056;-23
2023/05/08 08:11:29;;;;;;;16.27;9.30;;;23.50;65.30;;;;;;10528352;28;20085;-24
2023/05/08 08:16:31;;;;;;;18.60;10.38;;;23.50;65.10;;;;;;10528742;28;20498;-24
2023/05/08 08:21:32;;;;;;;;;;;23.50;64.90;;;;;;10538647;28;20044;-23
2023/05/08 08:26:36;;;;;;;15.50;8.43;;;23.50;64.90;;;;;;10530162;28;19928;-23
2023/05/08 08:31:37;;;;;;;14.10;9.23;;;23.50;65.10;;;;;;10531469;28;20435;-24
2023/05/08 08:36:39;;;;;;;;;;;23.20;66.60;;;;;;10537438;28;20465;-23
2023/05/08 08:41:42;;;;;;;16.27;9.38;;;23.20;66.40;;;;;;10533618;28;19955;-23
2023/05/08 08:46:50;;;;;;;16.88;9.73;;;23.40;65.60;;;;;;10535981;28;20484;-24
2023/05/08 08:51:56;;;;;;;12.73;8.77;;;23.50;65.10;;;;;;10514997;28;20078;-23
2023/05/08 08:57:01;;;;;;;12.77;9.38;;;23.60;64.90;;;;;;10518709;28;20036;-23
2023/05/08 09:02:09;;;;;;;12.90;8.93;;;23.30;66.00;;;;;;10522216;28;20044;-24
2023/05/08 09:07:12;;;;;;;11.52;8.07;;;23.30;66.40;;;;;;10526508;28;20459;-24
2023/05/08 09:12:15;;;;;;;10.48;7.80;;;23.10;67.60;;;;;;10540943;28;20724;-24
2023/05/08 09:17:17;;;;;;;11.60;7.88;;;22.10;73.80;;;;;;10532609;28;20075;-24
2023/05/08 09:22:22;;;;;;;8.70;6.70;;;23.00;68.00;;;;;;10525739;28;20046;-24
2023/05/08 09:27:27;;;;;;;8.82;6.22;;;23.30;66.40;;;;;;10528615;28;20063;-24
2023/05/08 09:32:30;;;;;;;8.73;5.88;;;23.20;67.30;;;;;;10529233;28;20440;-24
2023/05/08 09:37:32;;;;;;;9.07;6.03;;;23.30;66.70;;;;;;10535047;28;20056;-25
2023/05/08 09:42:39;;;;;;;9.23;4.78;;;23.50;65.90;;;;;;10533836;28;20047;-24
2023/05/08 09:47:48;;;;;;;11.65;6.88;;;23.40;66.30;;;;;;10519687;28;20072;-24
2023/05/08 09:52:50;;;;;;;6.63;5.20;;;23.60;65.40;;;;;;10528378;28;20135;-25
2023/05/08 09:57:55;;;;;;;7.45;5.10;;;23.20;67.20;;;;;;10521477;28;20048;-23
2023/05/08 10:02:59;;;;;;;13.88;9.65;;;23.40;66.20;;;;;;10524045;28;20050;-23
2023/05/08 10:08:18;;;;;;;6.90;4.75;;;22.50;69.80;;;;;;10527440;28;20056;-23
2023/05/08 10:13:21;;;;;;;8.43;5.88;;;23.40;66.70;;;;;;10529183;28;20044;-22
2023/05/08 10:18:27;;;;;;;7.95;5.80;;;23.40;66.40;;;;;;10535199;28;20056;-23
2023/05/08 10:23:30;;;;;;;7.53;5.55;;;22.80;70.40;;;;;;10533170;28;20111;-23
2023/05/08 10:28:40;;;;;;;6.60;4.85;;;23.30;67.30;;;;;;10540985;28;20078;-25
2023/05/08 10:33:45;;;;;;;5.95;4.60;;;22.90;69.70;;;;;;10547763;28;20055;-23
2023/05/08 10:38:49;;;;;;;4.32;3.92;;;23.60;66.30;;;;;;10528832;28;20048;-23
2023/05/08 10:43:54;;;;;;;4.82;4.15;;;23.80;65.20;;;;;;10541160;28;20096;-23
2023/05/08 10:49:06;;;;;;;8.27;6.68;;;23.70;66.00;;;;;;10536078;28;20085;-23
2023/05/08 10:54:13;;;;;;;7.63;5.20;;;23.60;65.80;;;;;;10537124;28;20101;-23
2023/05/08 10:59:19;;;;;;;10.05;6.82;;;23.50;67.10;;;;;;10544181;28;20089;-22
2023/05/08 11:04:23;;;;;;;7.30;5.32;;;23.40;67.60;;;;;;10545299;28;20081;-22
2023/05/08 11:09:29;;;;;;;14.82;9.50;;;23.80;65.50;;;;;;10535941;28;20442;-24
2023/05/08 11:14:34;;;;;;;15.88;9.15;;;23.40;67.70;;;;;;10540014;28;20139;-24
2023/05/08 11:19:38;;;;;;;34.92;20.60;;;23.10;70.20;;;;;;10519577;28;20149;-23
2023/05/08 11:24:41;;;;;;;7.95;6.13;;;22.80;72.00;;;;;;10534487;28;20079;-23
2023/05/08 11:29:44;;;;;;;16.05;10.48;;;23.20;70.10;;;;;;10541461;28;20062;-23
2023/05/08 11:34:47;;;;;;;12.48;7.35;;;23.40;69.20;;;;;;10527899;28;20062;-22
2023/05/08 11:39:49;;;;;;;28.55;17.65;;;23.20;71.10;;;;;;10545091;28;20784;-22
2023/05/08 11:45:04;;;;;;;14.48;9.35;;;22.90;72.00;;;;;;10532490;28;20052;-23
2023/05/08 11:50:08;;;;;;;22.23;14.98;;;23.00;72.20;;;;;;10539080;28;20073;-23
2023/05/08 11:55:11;;;;;;;12.63;8.43;;;22.70;76.20;;;;;;10518946;28;20056;-23
2023/05/08 12:00:15;;;;;;;11.40;7.20;;;22.50;77.50;;;;;;10546898;28;20044;-24
2023/05/08 12:05:27;;;;;;;13.73;10.35;;;23.60;69.80;;;;;;10515274;28;20136;-23
2023/05/08 12:10:28;;;;;;;28.25;18.40;;;22.70;75.50;;;;;;10536655;28;20482;-24
2023/05/08 12:15:33;;;;;;;19.02;12.90;;;21.30;84.00;;;;;;10533716;28;20052;-24
2023/05/08 12:20:35;;;;;;;7.20;5.80;;;21.50;85.90;;;;;;10523461;28;20094;-23
2023/05/08 12:25:37;;;;;;;8.82;6.30;;;23.20;74.00;;;;;;10540402;28;20139;-23
2023/05/08 12:30:41;;;;;;;20.08;12.73;;;23.80;69.60;;;;;;10525883;28;20043;-23
2023/05/08 12:35:44;;;;;;;9.95;6.20;;;23.30;71.60;;;;;;10528468;28;20055;-22
2023/05/08 12:40:47;;;;;;;7.40;5.43;;;23.60;71.00;;;;;;10542886;28;20489;-23
2023/05/08 12:45:51;;;;;;;18.73;11.27;;;23.60;71.20;;;;;;10531258;28;20056;-23
2023/05/08 12:50:53;;;;;;;7.85;5.45;;;23.70;69.20;;;;;;10526370;28;20048;-24
2023/05/08 12:55:56;;;;;;;6.75;4.78;;;24.10;67.40;;;;;;10516310;28;20102;-24
2023/05/08 13:01:11;;;;;;;12.68;6.30;;;24.30;67.00;;;;;;10529536;28;20048;-23
2023/05/08 13:06:20;;;;;;;12.27;6.93;;;24.10;67.50;;;;;;10521879;28;20044;-24
2023/05/08 13:11:30;;;;;;;7.35;5.72;;;23.50;70.70;;;;;;10524601;28;20051;-23
2023/05/08 13:16:42;;;;;;;9.18;5.43;;;24.30;66.90;;;;;;10529728;28;20719;-23
2023/05/08 13:21:46;;;;;;;5.82;4.93;;;24.30;66.30;;;;;;10519726;28;20900;-23
2023/05/08 13:26:47;;;;;;;9.45;6.10;;;24.30;66.40;;;;;;10527666;28;20117;-23
2023/05/08 13:31:51;;;;;;;;;;;24.30;66.90;;;;;;10518876;28;20040;-24
2023/05/08 13:36:52;;;;;;;10.65;7.07;;;23.90;68.00;;;;;;10522262;28;19924;-24
2023/05/08 13:41:54;;;;;;;;;;;23.80;69.40;;;;;;10536189;28;20071;-24
2023/05/08 13:46:57;;;;;;;23.50;13.35;;;22.80;73.90;;;;;;10523927;28;20015;-24
2023/05/08 13:51:59;;;;;;;20.45;12.73;;;22.90;76.50;;;;;;10532912;28;20135;-25
2023/05/08 13:57:02;;;;;;;25.35;13.07;;;22.10;79.40;;;;;;10526488;28;20492;-24
2023/05/08 14:02:06;;;;;;;12.48;7.82;;;21.40;85.20;;;;;;10522512;28;20072;-24
2023/05/08 14:07:08;;;;;;;12.63;7.25;;;21.90;85.20;;;;;;10530087;28;20091;-28
2023/05/08 14:12:11;;;;;;;9.70;6.40;;;22.60;79.50;;;;;;10537900;28;20056;-23
2023/05/08 14:17:14;;;;;;;11.07;7.13;;;22.90;76.60;;;;;;10529837;28;20083;-23
2023/05/08 14:22:16;;;;;;;9.65;6.25;;;23.30;73.80;;;;;;10520605;28;20075;-24
2023/05/08 14:27:18;;;;;;;24.67;15.63;;;23.70;70.80;;;;;;10518348;28;20071;-23
2023/05/08 14:32:21;;;;;;;26.30;16.00;;;23.20;72.10;;;;;;10514623;28;20072;-24
2023/05/08 14:37:23;;;;;;;28.42;16.13;;;23.20;72.60;;;;;;10525692;28;20145;-23
2023/05/08 14:42:25;;;;;;;;;;;22.80;74.80;;;;;;10527546;28;20151;-24
2023/05/08 14:47:30;;;;;;;14.02;9.32;;;23.50;71.80;;;;;;10520690;28;20430;-22
2023/05/08 14:52:32;;;;;;;8.57;6.13;;;23.70;70.50;;;;;;10514298;28;20421;-25
2023/05/08 14:57:33;;;;;;;;;;;23.80;69.80;;;;;;10533419;28;20059;-23
2023/05/08 15:02:36;;;;;;;10.63;7.28;;;23.90;68.30;;;;;;10540134;28;19924;-25
2023/05/08 15:07:39;;;;;;;13.30;7.60;;;24.10;68.60;;;;;;10533595;28;20142;-24
2023/05/08 15:12:41;;;;;;;11.75;7.47;;;23.60;71.20;;;;;;10532856;28;20198;-25
2023/05/08 15:17:44;;;;;;;24.08;13.00;;;23.10;75.10;;;;;;10536642;28;20059;-24
2023/05/08 15:22:46;;;;;;;11.50;7.30;;;22.00;84.20;;;;;;10527754;28;20583;-24
2023/05/08 15:27:51;;;;;;;14.15;8.27;;;22.80;79.00;;;;;;10535062;28;20514;-24
2023/05/08 15:32:54;;;;;;;10.68;6.70;;;23.30;74.40;;;;;;10532737;28;20133;-23
2023/05/08 15:37:56;;;;;;;9.55;6.20;;;23.60;72.40;;;;;;10521323;28;20076;-23
2023/05/08 15:42:58;;;;;;;;;;;23.90;70.50;;;;;;10524503;28;20072;-24
2023/05/08 15:48:01;;;;;;;8.93;5.63;;;24.30;68.00;;;;;;10525456;28;19963;-24
2023/05/08 15:53:03;;;;;;;7.05;5.07;;;24.40;67.30;;;;;;10523400;28;20482;-24
2023/05/08 15:58:05;;;;;;;6.68;5.47;;;24.50;67.20;;;;;;10524606;28;20044;-24
2023/05/08 16:03:08;;;;;;;;;;;24.50;67.30;;;;;;10526076;28;20090;-24
2023/05/08 16:08:11;;;;;;;7.97;5.40;;;24.40;67.60;;;;;;10531219;28;20000;-23
2023/05/08 16:13:13;;;;;;;8.18;4.53;;;24.50;66.90;;;;;;10508794;28;20056;-23
2023/05/08 16:18:22;;;;;;;;;;;24.50;67.00;;;;;;10523522;28;20119;-24
2023/05/08 16:23:24;;;;;;;8.90;4.90;;;24.50;66.40;;;;;;10524187;28;19997;-24
2023/05/08 16:28:26;;;;;;;11.73;8.05;;;24.60;66.50;;;;;;10527567;28;20044;-24
2023/05/08 16:33:31;;;;;;;7.35;5.05;;;24.40;67.10;;;;;;10518363;28;20048;-24
2023/05/08 16:38:33;;;;;;;12.18;8.13;;;24.30;67.20;;;;;;10527398;28;20055;-23
2023/05/08 16:43:35;;;;;;;6.72;4.43;;;23.80;69.10;;;;;;10530483;28;20040;-24
2023/05/08 16:48:38;;;;;;;;;;;23.50;72.80;;;;;;10528111;28;20139;-24
2023/05/08 16:53:40;;;;;;;13.75;8.80;;;21.20;84.10;;;;;;10530022;28;20018;-24
2023/05/08 16:58:41;;;;;;;15.63;9.15;;;20.70;92.20;;;;;;10530282;28;20071;-24
2023/05/08 17:03:45;;;;;;;6.57;4.50;;;21.50;89.60;;;;;;10526817;28;20055;-24
2023/05/08 17:08:46;;;;;;;28.30;15.80;;;22.90;79.10;;;;;;10530946;28;20081;-24
2023/05/08 17:13:48;;;;;;;9.85;6.13;;;20.90;87.10;;;;;;10525940;28;20163;-25
2023/05/08 17:18:52;;;;;;;10.88;6.00;;;22.10;82.50;;;;;;10531099;28;20084;-24
2023/05/08 17:23:53;;;;;;;12.93;7.20;;;23.10;77.40;;;;;;10517772;28;20072;-24
2023/05/08 17:28:55;;;;;;;7.50;4.45;;;22.60;76.80;;;;;;10527261;28;20483;-25
2023/05/08 17:33:58;;;;;;;;;;;23.70;72.00;;;;;;10523439;28;20184;-24
2023/05/08 17:39:00;;;;;;;6.18;3.83;;;24.00;69.50;;;;;;10524327;28;19973;-24
2023/05/08 17:44:03;;;;;;;;;;;24.20;68.10;;;;;;10533527;28;20052;-24
2023/05/08 17:49:06;;;;;;;;;;;24.30;67.30;;;;;;10529455;28;20364;-23
2023/05/08 17:54:08;;;;;;;21.02;8.25;;;24.20;67.50;;;;;;10528033;28;19920;-24
2023/05/08 17:59:09;;;;;;;;;;;22.10;74.40;;;;;;10532153;28;20085;-23
2023/05/08 18:04:13;;;;;;;6.37;4.30;;;20.90;76.80;;;;;;10526436;28;20002;-23
2023/05/08 18:09:15;;;;;;;12.80;7.13;;;20.80;90.80;;;;;;10522312;28;20090;-23
2023/05/08 18:14:16;;;;;;;15.70;7.22;;;20.70;83.90;;;;;;10508838;28;20143;-24
2023/05/08 18:19:19;;;;;;;15.48;6.97;;;19.70;87.30;;;;;;10523727;28;20052;-23
2023/05/08 18:24:22;;;;;;;15.38;6.20;;;20.50;87.70;;;;;;10523095;28;20135;-24
2023/05/08 18:29:24;;;;;;;;;;;21.20;75.60;;;;;;10525570;28;20080;-24
2023/05/08 18:34:27;;;;;;;12.07;4.75;;;20.50;92.60;;;;;;10533047;28;19924;-24
2023/05/08 18:39:29;;;;;;;11.00;5.13;;;21.10;91.00;;;;;;10524842;28;20134;-24
2023/05/08 18:44:31;;;;;;;13.32;5.68;;;20.50;91.50;;;;;;10518921;28;20136;-25
2023/05/08 18:49:34;;;;;;;6.68;3.38;;;19.80;94.30;;;;;;10529929;28;20594;-24
2023/05/08 18:54:36;;;;;;;11.57;4.32;;;20.60;93.60;;;;;;10518866;28;20106;-25
2023/05/08 18:59:38;;;;;;;8.02;3.65;;;20.70;92.50;;;;;;10529798;28;20048;-24
2023/05/08 19:04:41;;;;;;;9.23;2.75;;;19.40;87.90;;;;;;10527988;28;20068;-24
2023/05/08 19:09:43;;;;;;;7.65;2.13;;;21.40;90.80;;;;;;10532510;28;20122;-23
2023/05/08 19:14:45;;;;;;;3.70;2.33;;;21.70;89.00;;;;;;10532329;28;20050;-24
2023/05/08 19:19:50;;;;;;;5.40;2.42;;;23.00;78.00;;;;;;10527203;28;20051;-23
2023/05/08 19:24:52;;;;;;;4.95;1.80;;;23.40;73.80;;;;;;10520270;28;20040;-24
2023/05/08 19:29:53;;;;;;;;;;;23.60;70.80;;;;;;10533367;28;20055;-24
2023/05/08 19:34:57;;;;;;;5.13;1.70;;;23.60;71.00;;;;;;10528232;28;19921;-23
2023/05/08 19:39:58;;;;;;;3.05;1.58;;;23.80;69.30;;;;;;10530889;28;20036;-24
2023/05/08 19:45:00;;;;;;;6.32;1.60;;;23.90;67.70;;;;;;10532147;28;20044;-23
2023/05/08 19:50:05;;;;;;;;;;;24.00;67.00;;;;;;10536126;28;20055;-24
2023/05/08 19:55:08;;;;;;;4.95;1.65;;;24.10;66.50;;;;;;10537077;28;19923;-24
2023/05/08 20:00:11;;;;;;;2.83;1.55;;;24.10;66.20;;;;;;10531048;28;20455;-24
2023/05/08 20:05:14;;;;;;;2.85;1.40;;;24.10;65.80;;;;;;10513201;28;20048;-24
2023/05/08 20:10:16;;;;;;;5.82;1.60;;;24.10;65.60;;;;;;10523735;28;20044;-23
2023/05/08 20:15:18;;;;;;;4.40;1.55;;;24.10;65.50;;;;;;10530217;28;20056;-23
2023/05/08 20:20:22;;;;;;;2.67;1.27;;;24.10;65.30;;;;;;10522214;28;20071;-24
2023/05/08 20:25:24;;;;;;;2.97;1.35;;;24.10;65.20;;;;;;10510165;28;20548;-24
2023/05/08 20:30:26;;;;;;;4.22;1.52;;;24.10;65.10;;;;;;10525216;28;20518;-24
2023/05/08 20:35:29;;;;;;;1.75;1.17;;;24.10;64.90;;;;;;10526330;28;20051;-25
2023/05/08 20:40:31;;;;;;;1.90;1.00;;;24.10;64.80;;;;;;10511800;28;20131;-23
2023/05/08 20:45:33;;;;;;;2.80;1.02;;;24.00;64.70;;;;;;10527924;28;20090;-22
2023/05/08 20:50:36;;;;;;;;;;;24.00;64.80;;;;;;10522865;28;20136;-24
2023/05/08 20:55:38;;;;;;;4.20;1.75;;;24.00;65.00;;;;;;10522952;28;20008;-24
2023/05/08 21:00:39;;;;;;;;;;;24.00;64.70;;;;;;10526854;28;20106;-23
2023/05/08 21:05:42;;;;;;;3.58;1.90;;;23.90;64.70;;;;;;10530108;28;19967;-23
2023/05/08 21:10:44;;;;;;;5.20;2.63;;;23.90;64.70;;;;;;10519381;28;20094;-24
2023/05/08 21:15:49;;;;;;;4.45;2.40;;;23.90;64.60;;;;;;10523330;28;20105;-24
2023/05/08 21:20:52;;;;;;;4.45;2.45;;;23.90;64.60;;;;;;10529925;28;20054;-23
2023/05/08 21:25:54;;;;;;;3.30;2.38;;;23.90;64.60;;;;;;10532045;28;20036;-23
2023/05/08 21:30:56;;;;;;;6.28;2.97;;;23.90;64.50;;;;;;10533485;28;20155;-25
2023/05/08 21:35:59;;;;;;;5.78;2.95;;;23.90;64.50;;;;;;10544510;28;20086;-24
2023/05/08 21:41:06;;;;;;;5.28;2.03;;;23.90;64.50;;;;;;10531615;28;20048;-25
2023/05/08 21:46:08;;;;;;;3.05;2.15;;;23.80;64.50;;;;;;10519580;28;20085;-25
2023/05/08 21:51:12;;;;;;;3.47;2.15;;;23.80;64.40;;;;;;10543694;28;20492;-24
2023/05/08 21:56:15;;;;;;;4.68;2.22;;;23.80;64.40;;;;;;10530105;28;20048;-24
2023/05/08 22:01:17;;;;;;;7.03;3.65;;;23.80;64.40;;;;;;10525444;28;20056;-23
2023/05/08 22:06:20;;;;;;;4.43;2.78;;;23.70;64.50;;;;;;10525346;28;20143;-23
2023/05/08 22:11:22;;;;;;;4.43;2.03;;;23.70;64.40;;;;;;10518493;28;20637;-25
2023/05/08 22:16:24;;;;;;;3.03;1.63;;;23.70;64.30;;;;;;10523728;28;20150;-24
2023/05/08 22:21:28;;;;;;;4.15;1.60;;;23.70;64.20;;;;;;10507544;28;20048;-23
2023/05/08 22:26:30;;;;;;;4.68;2.20;;;23.70;64.30;;;;;;10525430;28;20097;-22
2023/05/08 22:31:32;;;;;;;;;;;23.70;64.30;;;;;;10514606;28;20083;-23
2023/05/08 22:36:35;;;;;;;4.20;1.92;;;23.70;64.30;;;;;;10529760;28;20287;-24
2023/05/08 22:41:38;;;;;;;2.63;1.73;;;23.70;64.20;;;;;;10523969;28;20063;-24
2023/05/08 22:46:39;;;;;;;6.78;2.80;;;23.60;64.20;;;;;;10516945;28;20119;-24
2023/05/08 22:51:43;;;;;;;;;;;23.60;64.20;;;;;;10521361;28;20075;-24
2023/05/08 22:56:44;;;;;;;4.90;2.00;;;23.60;64.20;;;;;;10515680;28;20050;-25
2023/05/08 23:01:46;;;;;;;1.70;1.30;;;23.60;64.10;;;;;;10526452;28;20139;-24
2023/05/08 23:06:50;;;;;;;2.78;1.80;;;23.60;64.20;;;;;;10521638;28;20139;-24
2023/05/08 23:11:52;;;;;;;2.47;1.73;;;23.60;64.20;;;;;;10519235;28;20525;-23
2023/05/08 23:16:54;;;;;;;3.88;2.10;;;23.50;64.30;;;;;;10507081;28;20076;-24
2023/05/08 23:21:57;;;;;;;;;;;23.50;64.30;;;;;;10525492;28;20552;-23
2023/05/08 23:26:58;;;;;;;5.78;2.95;;;23.50;64.60;;;;;;10531631;28;19920;-23
2023/05/08 23:32:00;;;;;;;;;;;23.40;64.60;;;;;;10521598;28;20036;-23
2023/05/08 23:37:03;;;;;;;6.70;2.60;;;23.40;65.00;;;;;;10522456;28;20027;-24
2023/05/08 23:42:06;;;;;;;3.83;2.33;;;23.30;64.80;;;;;;10527040;28;20048;-24
2023/05/08 23:47:08;;;;;;;5.03;2.72;;;23.30;65.10;;;;;;10528758;28;20055;-24
2023/05/08 23:52:11;;;;;;;6.68;2.70;;;23.30;65.20;;;;;;10530139;28;20048;-24
2023/05/08 23:57:13;;;;;;;5.63;3.05;;;23.20;65.30;;;;;;10524080;28;20056;-23
